Time;durP1;ratioP1;P1;durP2;ratioP2;P2;SDS_P1;SDS_P2;PMS_P1;PMS_P2;Temp;Humidity;BMP_temperature;BMP_pressure;BME280_temperature;BME280_humidity;BME280_pressure;Samples;Min_cycle;Max_cycle;Signal;HPM_P1;HPM_P2
2022/07/09 00:02:36;;;;;;;17.17;7.45;;;16.40;99.90;;;;;;6156582;23;20029;-89
2022/07/09 00:05:52;;;;;;;18.45;7.18;;;16.10;99.90;;;;;;6152778;23;20018;-88
2022/07/09 00:08:18;;;;;;;15.85;7.95;;;16.20;99.90;;;;;;6152349;23;20067;-88
2022/07/09 00:10:43;;;;;;;16.35;7.13;;;16.10;99.90;;;;;;6156659;23;20096;-89
2022/07/09 00:13:15;;;;;;;14.75;7.35;;;17.10;99.90;;;;;;6155649;23;20092;-88
2022/07/09 00:15:47;;;;;;;21.08;8.25;;;16.70;99.90;;;;;;6152139;23;20395;-89
2022/07/09 00:18:31;;;;;;;18.83;7.68;;;16.10;99.90;;;;;;6156039;23;20334;-90
2022/07/09 00:21:06;;;;;;;16.15;7.45;;;16.20;99.90;;;;;;6153675;23;20115;-89
2022/07/09 00:23:32;;;;;;;17.20;7.88;;;17.20;99.90;;;;;;6152878;23;20017;-89
2022/07/09 00:26:04;;;;;;;16.42;7.80;;;16.30;99.90;;;;;;6153478;23;20059;-89
2022/07/09 00:28:29;;;;;;;19.10;7.88;;;16.00;99.90;;;;;;6152538;23;20121;-89
2022/07/09 00:30:55;;;;;;;15.32;7.60;;;16.30;99.90;;;;;;6155327;23;20049;-89
2022/07/09 00:33:20;;;;;;;19.73;8.15;;;16.10;99.90;;;;;;6155612;23;20052;-89
2022/07/09 00:35:46;;;;;;;14.90;7.68;;;15.80;99.90;;;;;;6151802;23;20021;-89
2022/07/09 00:38:14;;;;;;;17.63;7.43;;;15.40;99.90;;;;;;6156215;23;20018;-89
2022/07/09 00:40:40;;;;;;;16.35;7.57;;;15.80;99.90;;;;;;6153417;23;20085;-88
2022/07/09 00:43:19;;;;;;;18.58;7.80;;;15.80;99.90;;;;;;6153248;23;20056;-88
2022/07/09 00:45:46;;;;;;;19.15;7.93;;;15.70;99.90;;;;;;6155388;23;20013;-89
2022/07/09 00:48:13;;;;;;;16.50;7.60;;;15.70;99.90;;;;;;6154316;23;20014;-89
2022/07/09 00:50:40;;;;;;;16.25;7.43;;;16.00;99.90;;;;;;6154873;23;20023;-90
2022/07/09 00:53:11;;;;;;;17.52;7.40;;;15.60;99.90;;;;;;6155778;23;20443;-89
2022/07/09 00:55:38;;;;;;;17.92;8.45;;;15.50;99.90;;;;;;6131556;23;20097;-88
2022/07/09 00:58:04;;;;;;;17.60;7.72;;;16.10;99.90;;;;;;6155862;23;20209;-88
2022/07/09 01:00:30;;;;;;;14.77;7.85;;;15.90;99.90;;;;;;6156070;23;20045;-88
2022/07/09 01:02:56;;;;;;;15.90;7.15;;;15.50;99.90;;;;;;6155516;23;20521;-88
2022/07/09 01:05:22;;;;;;;17.25;8.38;;;15.40;99.90;;;;;;6154398;23;20072;-89
2022/07/09 01:07:48;;;;;;;17.98;8.30;;;15.70;99.90;;;;;;6156629;23;20493;-88
2022/07/09 01:10:13;;;;;;;16.65;8.30;;;15.40;99.90;;;;;;6155498;23;20013;-88
2022/07/09 01:12:39;;;;;;;18.85;8.95;;;15.50;99.90;;;;;;6154887;23;20016;-89
2022/07/09 01:15:06;;;;;;;17.90;8.82;;;15.50;99.90;;;;;;6155272;23;20041;-89
2022/07/09 01:17:44;;;;;;;18.10;8.57;;;15.50;99.90;;;;;;6155975;23;20024;-88
2022/07/09 01:20:10;;;;;;;21.95;8.98;;;15.50;99.90;;;;;;6155526;23;20013;-88
2022/07/09 01:22:35;;;;;;;18.75;8.20;;;15.50;99.90;;;;;;6155071;23;20349;-88
2022/07/09 01:25:04;;;;;;;18.55;8.25;;;15.50;99.90;;;;;;6154102;23;20446;-88
2022/07/09 01:27:29;;;;;;;18.73;7.97;;;15.50;99.90;;;;;;6157117;23;20013;-89
2022/07/09 01:29:55;;;;;;;17.92;7.63;;;15.60;99.90;;;;;;6156425;23;20383;-88
2022/07/09 01:32:20;;;;;;;19.13;8.50;;;15.50;99.90;;;;;;6155291;23;20022;-89
2022/07/09 01:34:46;;;;;;;15.40;7.93;;;16.20;99.90;;;;;;6157267;23;20319;-88
2022/07/09 01:37:13;;;;;;;16.17;7.82;;;15.50;99.90;;;;;;6156160;23;20442;-88
2022/07/09 01:39:49;;;;;;;18.02;7.70;;;15.40;99.90;;;;;;6154018;23;20014;-88
2022/07/09 01:42:16;;;;;;;16.52;7.30;;;15.40;99.90;;;;;;6155118;23;20068;-88
2022/07/09 01:44:42;;;;;;;16.17;7.75;;;15.40;99.90;;;;;;6154504;23;20316;-88
2022/07/09 01:47:08;;;;;;;18.48;7.88;;;16.10;99.90;;;;;;6158385;23;20028;-88
2022/07/09 01:49:33;;;;;;;20.52;7.72;;;15.30;99.90;;;;;;6156830;23;20303;-88
2022/07/09 01:52:01;;;;;;;17.70;8.02;;;15.50;99.90;;;;;;6154585;23;20025;-88
2022/07/09 01:54:26;;;;;;;16.63;7.75;;;16.20;99.90;;;;;;6154134;23;20006;-88
2022/07/09 01:56:52;;;;;;;17.23;8.10;;;15.80;99.90;;;;;;6154628;23;20102;-88
2022/07/09 01:59:18;;;;;;;17.70;7.75;;;15.40;99.90;;;;;;6154725;23;20024;-89
2022/07/09 02:01:43;;;;;;;20.65;8.27;;;15.40;99.90;;;;;;6153965;23;20104;-88
2022/07/09 02:04:09;;;;;;;19.17;8.43;;;15.40;99.90;;;;;;6156583;23;20014;-87
2022/07/09 02:06:34;;;;;;;20.30;8.10;;;15.50;99.90;;;;;;6154221;23;20022;-88
2022/07/09 02:09:00;;;;;;;20.65;8.32;;;15.50;99.90;;;;;;6155104;23;20584;-89
2022/07/09 02:11:25;;;;;;;18.80;9.15;;;15.50;99.90;;;;;;6156184;23;20022;-90
2022/07/09 02:13:51;;;;;;;20.85;8.10;;;16.20;99.90;;;;;;6153234;23;20041;-88
2022/07/09 02:16:17;;;;;;;21.25;9.65;;;15.70;99.90;;;;;;6154572;23;20053;-88
2022/07/09 02:18:42;;;;;;;20.50;9.85;;;15.50;99.90;;;;;;6154344;23;20345;-90
2022/07/09 02:21:08;;;;;;;19.63;9.77;;;15.40;99.90;;;;;;6153772;23;20009;-89
2022/07/09 02:23:33;;;;;;;19.35;8.50;;;15.50;99.90;;;;;;6155016;23;20025;-87
2022/07/09 02:26:02;;;;;;;21.63;9.77;;;15.50;99.90;;;;;;6156236;23;20025;-89
2022/07/09 02:28:27;;;;;;;20.45;9.35;;;15.50;99.90;;;;;;6154158;23;20043;-89
2022/07/09 02:30:54;;;;;;;19.38;9.20;;;16.40;99.90;;;;;;6156141;23;20450;-90
2022/07/09 02:33:22;;;;;;;19.90;9.35;;;15.50;99.90;;;;;;6156317;23;20013;-87
2022/07/09 02:35:48;;;;;;;18.85;9.30;;;15.60;99.90;;;;;;6155783;23;20009;-89
2022/07/09 02:38:14;;;;;;;18.15;9.68;;;15.50;99.90;;;;;;6155425;23;20024;-89
2022/07/09 02:40:39;;;;;;;20.20;9.80;;;15.50;99.90;;;;;;6157018;23;20018;-88
2022/07/09 02:43:05;;;;;;;18.33;10.18;;;15.50;99.90;;;;;;6154096;23;20028;-88
2022/07/09 02:45:31;;;;;;;23.77;10.43;;;15.50;99.90;;;;;;6157244;23;20192;-89
2022/07/09 02:47:56;;;;;;;18.73;9.82;;;15.60;99.90;;;;;;6154584;23;20025;-88
2022/07/09 02:50:22;;;;;;;21.17;11.13;;;15.90;99.90;;;;;;6154995;23;20022;-88
2022/07/09 02:52:47;;;;;;;20.67;10.10;;;15.50;99.90;;;;;;6156662;23;20473;-88
2022/07/09 02:55:16;;;;;;;19.40;9.68;;;15.50;99.90;;;;;;6155090;23;20025;-88
2022/07/09 02:57:41;;;;;;;22.92;11.23;;;15.50;99.90;;;;;;6154597;23;20021;-89
2022/07/09 03:00:10;;;;;;;19.67;9.77;;;16.10;99.90;;;;;;6155903;23;20048;-88
2022/07/09 03:02:36;;;;;;;20.30;9.93;;;15.50;99.90;;;;;;6154968;23;20064;-89
2022/07/09 03:05:02;;;;;;;24.90;10.18;;;15.80;99.90;;;;;;6154204;23;20040;-88
2022/07/09 03:07:27;;;;;;;21.70;9.77;;;15.60;99.90;;;;;;6156878;23;20454;-88
2022/07/09 03:09:53;;;;;;;20.23;9.93;;;15.50;99.90;;;;;;6154101;23;20018;-89
2022/07/09 03:12:19;;;;;;;22.20;10.38;;;15.60;99.90;;;;;;6155077;23;20092;-89
2022/07/09 03:14:53;;;;;;;23.98;11.10;;;16.30;99.90;;;;;;6154146;23;20017;-88
2022/07/09 03:17:20;;;;;;;21.70;9.88;;;16.10;99.90;;;;;;6153240;23;20068;-89
2022/07/09 03:19:46;;;;;;;21.83;10.05;;;15.60;99.90;;;;;;6155170;23;20074;-88
2022/07/09 03:22:12;;;;;;;19.23;10.15;;;15.50;99.90;;;;;;6154664;23;20013;-88
2022/07/09 03:24:37;;;;;;;20.55;10.05;;;15.60;99.90;;;;;;6154065;23;20021;-89
2022/07/09 03:27:03;;;;;;;21.48;9.85;;;15.60;99.90;;;;;;6154155;23;20009;-89
2022/07/09 03:29:28;;;;;;;21.63;9.85;;;15.60;99.90;;;;;;6155923;23;20013;-88
2022/07/09 03:31:54;;;;;;;16.77;9.35;;;16.10;99.90;;;;;;6154656;23;20516;-88
2022/07/09 03:34:20;;;;;;;16.92;8.82;;;15.70;99.90;;;;;;6156485;23;20018;-88
2022/07/09 03:36:45;;;;;;;16.95;8.88;;;15.60;99.90;;;;;;6154246;23;20025;-90
2022/07/09 03:39:11;;;;;;;18.70;9.05;;;15.60;99.90;;;;;;6154079;23;20013;-90
2022/07/09 03:41:36;;;;;;;19.20;8.63;;;15.70;99.90;;;;;;6154642;23;20049;-89
2022/07/09 03:44:03;;;;;;;20.35;8.27;;;15.70;99.90;;;;;;6156736;23;20013;-89
2022/07/09 03:46:29;;;;;;;17.80;8.35;;;15.70;99.90;;;;;;6155681;23;20450;-89
2022/07/09 03:48:54;;;;;;;18.60;8.95;;;15.70;99.90;;;;;;6154301;23;20021;-89
2022/07/09 03:51:40;;;;;;;19.50;9.35;;;15.70;99.90;;;;;;6153147;23;20347;-88
2022/07/09 03:54:09;;;;;;;15.98;7.80;;;15.60;99.90;;;;;;6153153;23;20020;-89
2022/07/09 03:56:41;;;;;;;17.90;7.88;;;15.90;99.90;;;;;;6129634;23;20021;-89
2022/07/09 03:59:13;;;;;;;17.15;7.32;;;16.60;99.90;;;;;;6131264;23;20018;-89
2022/07/09 04:01:42;;;;;;;16.35;7.85;;;16.50;99.90;;;;;;6155390;23;20021;-88
2022/07/09 04:04:14;;;;;;;14.68;7.32;;;16.80;99.90;;;;;;6129256;23;20017;-88
2022/07/09 04:06:43;;;;;;;15.77;7.53;;;16.60;99.90;;;;;;6127885;23;20021;-88
2022/07/09 04:09:08;;;;;;;15.85;7.35;;;16.70;99.90;;;;;;6146814;23;20025;-89
2022/07/09 04:11:35;;;;;;;16.23;7.05;;;16.40;99.90;;;;;;6159982;23;20021;-88
2022/07/09 04:14:01;;;;;;;16.42;7.18;;;16.00;99.90;;;;;;6157903;23;20028;-88
2022/07/09 04:16:30;;;;;;;16.55;7.63;;;15.90;99.90;;;;;;6159430;23;20346;-89
2022/07/09 04:19:16;;;;;;;16.83;7.35;;;15.80;99.90;;;;;;6158856;23;20017;-89
2022/07/09 04:21:48;;;;;;;16.48;7.75;;;15.20;99.90;;;;;;6156940;23;20055;-89
2022/07/09 04:24:15;;;;;;;14.88;6.47;;;15.80;99.90;;;;;;6159572;23;20024;-89
2022/07/09 04:26:46;;;;;;;15.68;7.00;;;17.00;99.90;;;;;;6158272;23;20507;-89
2022/07/09 04:29:12;;;;;;;16.92;8.00;;;16.60;99.90;;;;;;6184153;23;20092;-88
2022/07/09 04:31:38;;;;;;;18.48;7.70;;;15.80;99.90;;;;;;6159340;23;20021;-88
2022/07/09 04:34:03;;;;;;;14.10;7.05;;;15.90;99.90;;;;;;6158878;23;20052;-88
2022/07/09 04:36:29;;;;;;;17.73;8.32;;;16.50;99.90;;;;;;6184480;23;20013;-89
2022/07/09 04:38:55;;;;;;;17.77;7.65;;;16.70;99.90;;;;;;6158172;23;20054;-89
2022/07/09 04:41:21;;;;;;;16.42;7.60;;;16.00;99.90;;;;;;6159207;23;20016;-89
2022/07/09 04:43:47;;;;;;;15.02;7.43;;;15.90;99.90;;;;;;6184023;23;20016;-88
2022/07/09 04:46:13;;;;;;;17.42;7.32;;;16.00;99.90;;;;;;6185786;23;20096;-89
2022/07/09 04:48:39;;;;;;;15.77;7.75;;;16.10;99.90;;;;;;6185442;23;20016;-89
2022/07/09 04:51:08;;;;;;;16.70;7.32;;;16.40;99.90;;;;;;6186209;23;20014;-89
2022/07/09 04:53:36;;;;;;;17.08;7.68;;;16.00;99.90;;;;;;6186410;23;20013;-89
2022/07/09 04:56:02;;;;;;;15.55;7.28;;;16.00;99.90;;;;;;6158066;23;20108;-89
2022/07/09 04:58:29;;;;;;;15.77;7.13;;;16.10;99.90;;;;;;6159433;23;20013;-88
2022/07/09 05:00:54;;;;;;;15.35;6.88;;;16.20;99.90;;;;;;6159174;23;20024;-89
2022/07/09 05:03:20;;;;;;;15.10;6.93;;;17.00;99.90;;;;;;6158228;23;20017;-89
2022/07/09 05:05:46;;;;;;;17.75;7.13;;;16.20;99.90;;;;;;6158935;23;20013;-89
2022/07/09 05:08:11;;;;;;;17.13;7.20;;;16.30;99.90;;;;;;6184439;23;20021;-88
2022/07/09 05:10:38;;;;;;;13.98;6.57;;;16.40;99.90;;;;;;6183571;23;20021;-90
2022/07/09 05:13:03;;;;;;;15.35;6.55;;;16.40;99.90;;;;;;6151910;23;20619;-89
2022/07/09 05:15:38;;;;;;;18.08;6.95;;;16.40;99.90;;;;;;6157804;23;20025;-89
2022/07/09 05:18:04;;;;;;;14.65;6.97;;;17.20;99.90;;;;;;6158207;23;20029;-90
2022/07/09 05:20:42;;;;;;;15.13;6.90;;;16.80;99.90;;;;;;6158679;23;20024;-90
2022/07/09 05:23:13;;;;;;;15.50;6.25;;;17.70;99.90;;;;;;6186004;23;20017;-88
2022/07/09 05:25:48;;;;;;;14.48;6.70;;;16.50;99.90;;;;;;6186708;23;20016;-95
2022/07/09 05:28:33;;;;;;;15.73;6.78;;;16.60;99.90;;;;;;6161579;23;20027;-94
2022/07/09 05:31:16;;;;;;;;;;;;;;;;;;;;;
2022/07/09 05:34:56;;;;;;;16.55;6.38;;;17.00;99.90;;;;;;6192247;23;20023;-95
2022/07/09 05:37:48;;;;;;;13.30;6.15;;;16.80;99.90;;;;;;6165287;23;20405;-94
2022/07/09 05:42:41;;;;;;;12.88;6.53;;;16.90;99.90;;;;;;6187167;23;20393;-93
2022/07/09 05:47:44;;;;;;;14.60;6.68;;;17.00;99.90;;;;;;6186609;23;20025;-91
2022/07/09 05:50:22;;;;;;;12.77;5.93;;;17.40;99.90;;;;;;6161453;23;20013;-93
2022/07/09 05:53:50;;;;;;;15.13;6.30;;;17.80;99.90;;;;;;6171109;23;20021;-96
2022/07/09 05:56:51;;;;;;;14.15;5.85;;;17.20;99.90;;;;;;6202609;23;20028;-96
2022/07/09 05:59:32;;;;;;;16.60;5.78;;;17.20;99.90;;;;;;6172134;23;20561;-96
2022/07/09 06:04:50;;;;;;;14.73;5.97;;;17.30;99.90;;;;;;6192161;23;20036;-96
2022/07/09 06:10:40;;;;;;;13.63;5.65;;;17.50;99.90;;;;;;6232601;23;20021;-96
2022/07/09 06:13:08;;;;;;;12.85;5.57;;;17.50;99.90;;;;;;6189073;23;20017;-94
2022/07/09 06:15:34;;;;;;;14.05;5.72;;;18.70;99.90;;;;;;6191595;23;20039;-95
2022/07/09 06:18:01;;;;;;;12.65;5.38;;;17.80;99.90;;;;;;6189657;23;20111;-93
2022/07/09 06:20:46;;;;;;;11.77;5.10;;;17.70;99.90;;;;;;6189502;23;20013;-94
2022/07/09 06:23:30;;;;;;;13.90;5.95;;;17.50;99.90;;;;;;6218884;23;20039;-96
2022/07/09 06:25:55;;;;;;;10.65;5.00;;;17.70;99.90;;;;;;6216648;23;20450;-93
2022/07/09 06:28:37;;;;;;;11.55;4.72;;;18.70;99.90;;;;;;6188004;23;20024;-92
2022/07/09 06:31:09;;;;;;;12.02;4.95;;;18.30;99.90;;;;;;6186835;23;20017;-93
2022/07/09 06:33:38;;;;;;;14.18;4.85;;;18.20;99.90;;;;;;6187212;23;20009;-92
2022/07/09 06:36:10;;;;;;;10.43;4.40;;;18.80;99.90;;;;;;6160038;23;20025;-91
2022/07/09 06:41:47;;;;;;;11.80;3.90;;;18.80;99.90;;;;;;6164912;23;20445;-92
2022/07/09 06:44:28;;;;;;;11.15;4.22;;;18.90;99.90;;;;;;6160759;23;20021;-92
2022/07/09 06:47:07;;;;;;;13.07;4.30;;;19.30;99.90;;;;;;6164787;23;20028;-95
2022/07/09 06:50:01;;;;;;;;;;;;;;;;;;;;;
2022/07/09 06:53:29;;;;;;;8.68;3.90;;;17.70;99.90;;;;;;6099664;23;20072;-92
2022/07/09 06:56:01;;;;;;;9.82;3.65;;;18.20;99.90;;;;;;6169318;23;20079;-95
2022/07/09 07:12:33;;;;;;;;;;;18.20;99.90;;;;;;6136773;23;20013;-96
2022/07/09 07:15:00;;;;;;;12.07;4.03;;;18.10;99.90;;;;;;6137360;23;19945;-96
2022/07/09 07:17:35;;;;;;;10.25;3.67;;;18.40;99.90;;;;;;6138188;23;20149;-96
2022/07/09 07:20:04;;;;;;;10.02;3.70;;;18.20;99.90;;;;;;6098680;23;20021;-96
2022/07/09 07:22:32;;;;;;;9.43;3.95;;;18.20;99.90;;;;;;6164760;23;20108;-96
2022/07/09 07:25:29;;;;;;;12.48;4.03;;;18.20;99.90;;;;;;6162047;23;20013;-96
2022/07/09 07:28:02;;;;;;;10.23;4.00;;;18.20;99.90;;;;;;6166758;23;20096;-95
2022/07/09 07:30:32;;;;;;;11.25;3.72;;;19.20;99.90;;;;;;6156148;23;20028;-96
2022/07/09 07:33:28;;;;;;;10.43;3.42;;;18.50;99.90;;;;;;6132142;23;20489;-93
2022/07/09 07:35:54;;;;;;;10.23;4.13;;;19.30;99.90;;;;;;6154525;23;20355;-92
2022/07/09 07:38:27;;;;;;;10.68;3.95;;;19.70;99.90;;;;;;6155263;23;20126;-93
2022/07/09 07:40:56;;;;;;;10.30;4.10;;;18.50;99.90;;;;;;6156322;23;20088;-94
2022/07/09 07:43:27;;;;;;;11.80;4.00;;;18.60;99.90;;;;;;6154144;23;20029;-94
2022/07/09 07:45:58;;;;;;;11.73;3.30;;;18.40;99.90;;;;;;6153612;23;20040;-95
2022/07/09 07:48:45;;;;;;;8.48;3.50;;;18.80;99.90;;;;;;6157995;23;20025;-96
2022/07/09 07:53:47;;;;;;;10.48;3.58;;;18.30;99.90;;;;;;6187483;23;20028;-96
2022/07/09 07:56:36;;;;;;;9.98;3.67;;;18.30;99.90;;;;;;6187771;23;20433;-96
2022/07/09 07:59:02;;;;;;;10.30;3.53;;;18.30;99.90;;;;;;6160636;23;20017;-96
2022/07/09 08:01:29;;;;;;;14.65;3.75;;;18.30;99.90;;;;;;6160998;23;20013;-96
2022/07/09 08:03:57;;;;;;;9.13;3.50;;;19.00;99.90;;;;;;6187834;23;20028;-96
2022/07/09 08:06:23;;;;;;;10.50;3.58;;;18.40;99.90;;;;;;6166331;23;20017;-95
2022/07/09 08:09:15;;;;;;;9.43;3.80;;;19.50;99.90;;;;;;6148119;23;20025;31
2022/07/09 08:22:04;;;;;;;8.73;3.58;;;18.70;99.90;;;;;;6183975;23;20028;-96
2022/07/09 08:27:02;;;;;;;8.82;3.30;;;18.90;99.90;;;;;;6187245;23;20036;-96
2022/07/09 08:29:28;;;;;;;10.88;3.60;;;19.00;99.90;;;;;;6160393;23;20017;-94
2022/07/09 08:35:12;;;;;;;10.10;3.67;;;19.50;99.90;;;;;;6180448;23;20021;-94
2022/07/09 08:37:46;;;;;;;9.48;3.40;;;19.70;99.90;;;;;;6014201;23;20151;-95
2022/07/09 08:40:46;;;;;;;9.38;3.22;;;20.20;99.90;;;;;;6014667;23;20023;-96
2022/07/09 08:52:43;;;;;;;10.68;2.95;;;20.40;99.90;;;;;;6172078;23;20033;-94
2022/07/09 08:58:45;;;;;;;7.05;2.53;;;21.40;99.90;;;;;;6142420;23;20021;-95
2022/07/09 09:01:16;;;;;;;9.95;2.90;;;20.50;99.90;;;;;;6160829;23;20096;-89
2022/07/09 09:03:42;;;;;;;9.13;2.90;;;20.60;99.90;;;;;;6157927;23;20092;-90
2022/07/09 09:06:36;;;;;;;8.00;2.80;;;20.50;99.90;;;;;;6158618;23;20021;-91
2022/07/09 09:09:01;;;;;;;8.85;2.50;;;20.30;99.90;;;;;;6185714;23;20040;-90
2022/07/09 09:11:44;;;;;;;;;;;;;;;;;;;;;
2022/07/09 09:14:47;;;;;;;7.63;2.40;;;20.90;99.90;;;;;;6142932;23;20017;-91
2022/07/09 09:17:15;;;;;;;6.57;2.17;;;21.10;99.90;;;;;;6125244;23;20028;-90
2022/07/09 09:19:46;;;;;;;7.10;2.40;;;22.20;99.90;;;;;;6160211;23;20109;-91
2022/07/09 09:22:16;;;;;;;7.70;2.13;;;22.50;99.90;;;;;;6160261;23;20053;-92
2022/07/09 09:24:42;;;;;;;6.90;2.40;;;21.80;99.90;;;;;;6185576;23;20024;-91
2022/07/09 09:27:14;;;;;;;6.43;2.10;;;22.00;99.90;;;;;;6187500;23;20017;-92
2022/07/09 09:30:17;;;;;;;9.23;2.47;;;22.20;99.90;;;;;;6159974;23;20072;-91
2022/07/09 09:32:42;;;;;;;6.55;2.10;;;21.30;99.90;;;;;;6014127;23;20098;-90
2022/07/09 09:35:17;;;;;;;6.93;2.20;;;22.00;99.90;;;;;;6015038;23;20456;-91
2022/07/09 09:37:43;;;;;;;5.68;2.00;;;21.40;99.90;;;;;;6037503;23;20023;-90
2022/07/09 09:40:17;;;;;;;6.40;2.30;;;21.80;99.90;;;;;;6014445;23;20329;-91
2022/07/09 09:42:48;;;;;;;5.53;2.00;;;21.60;99.90;;;;;;6014811;23;20040;-92
2022/07/09 09:45:17;;;;;;;5.60;1.98;;;21.80;99.90;;;;;;6037885;23;20344;-91
2022/07/09 09:48:08;;;;;;;6.50;1.90;;;22.40;99.90;;;;;;6158330;23;20468;-90
2022/07/09 09:50:45;;;;;;;6.68;2.05;;;22.10;99.90;;;;;;6187305;23;20056;-91
2022/07/09 09:53:27;;;;;;;5.07;1.90;;;21.40;99.90;;;;;;6147534;23;20033;-88
2022/07/09 09:56:02;;;;;;;6.15;2.10;;;21.00;99.90;;;;;;6165929;23;20025;-92
2022/07/09 09:58:31;;;;;;;6.03;2.10;;;20.80;99.90;;;;;;6138202;23;20051;-93
2022/07/09 10:00:57;;;;;;;6.07;2.00;;;21.00;99.90;;;;;;6178865;23;20013;-93
2022/07/09 10:06:26;;;;;;;8.93;2.30;;;21.40;99.90;;;;;;6134071;23;20108;-94
2022/07/09 10:11:50;;;;;;;8.30;2.50;;;20.60;99.90;;;;;;6067335;23;20027;-91
2022/07/09 10:14:23;;;;;;;6.18;2.22;;;21.50;99.90;;;;;;6158337;23;20096;-94
2022/07/09 10:17:13;;;;;;;8.07;2.10;;;20.70;99.90;;;;;;6122506;23;20025;-92
2022/07/09 10:20:44;;;;;;;5.57;2.03;;;20.80;99.90;;;;;;6158134;23;20453;-92
2022/07/09 10:24:05;;;;;;;5.60;1.92;;;21.20;99.90;;;;;;6186556;23;20017;-91
2022/07/09 10:27:09;;;;;;;7.03;1.90;;;21.70;99.90;;;;;;6121948;23;20100;-91
2022/07/09 10:30:07;;;;;;;3.95;1.60;;;21.80;99.90;;;;;;6162014;23;20021;-91
2022/07/09 10:35:30;;;;;;;7.05;2.13;;;21.70;99.90;;;;;;6181506;23;20032;-95
2022/07/09 10:38:17;;;;;;;6.78;1.88;;;21.30;99.90;;;;;;6188856;23;20434;-91
2022/07/09 10:44:36;;;;;;;4.82;1.80;;;20.80;99.90;;;;;;6044930;23;20027;-96
2022/07/09 10:49:48;;;;;;;5.63;1.67;;;21.00;99.90;;;;;;6184195;23;20025;-90
2022/07/09 10:52:20;;;;;;;5.97;1.80;;;21.60;99.90;;;;;;6131059;23;20037;-90
2022/07/09 10:57:30;;;;;;;7.07;2.10;;;22.50;99.90;;;;;;6174782;23;20084;-89
2022/07/09 11:18:20;;;;;;;;;;;;;;;;;;;;;
2022/07/09 11:33:00;;;;;;;6.57;1.80;;;22.60;99.90;;;;;;6066184;23;20050;-92
2022/07/09 11:52:44;;;;;;;7.97;1.95;;;23.00;99.90;;;;;;6133496;23;1214039;-90
2022/07/09 11:58:54;;;;;;;7.18;2.17;;;22.30;99.90;;;;;;6184652;23;20112;-90
2022/07/09 12:11:31;;;;;;;8.98;2.30;;;21.70;99.90;;;;;;6215548;23;20019;-91
2022/07/09 12:17:42;;;;;;;7.63;2.30;;;22.30;99.90;;;;;;6216700;23;20025;-92
2022/07/09 12:21:05;;;;;;;;;;;;;;;;;;;;;
2022/07/09 12:23:59;;;;;;;7.50;2.17;;;22.10;99.90;;;;;;6150624;23;20027;-90
2022/07/09 12:26:35;;;;;;;;;;;;;;;;;;;;;
2022/07/09 12:30:00;;;;;;;7.32;2.15;;;21.90;99.90;;;;;;6164747;23;20464;-91
2022/07/09 12:32:27;;;;;;;10.63;2.28;;;21.90;99.90;;;;;;6160697;23;20032;-89
2022/07/09 12:48:10;;;;;;;7.45;2.05;;;23.60;99.90;;;;;;6034855;23;20024;-90
2022/07/09 12:51:28;;;;;;;8.35;2.28;;;22.70;99.90;;;;;;6035531;23;20322;-90
2022/07/09 12:53:56;;;;;;;9.10;2.33;;;23.00;99.90;;;;;;6154196;23;20071;-89
2022/07/09 13:02:56;;;;;;;7.28;1.90;;;23.10;99.90;;;;;;6179432;23;20060;-89
2022/07/09 14:38:08;;;;;;;7.13;2.10;;;21.90;99.90;;;;;;6156674;23;20120;-93
2022/07/09 14:41:10;;;;;;;5.78;1.70;;;21.60;99.90;;;;;;6130277;23;20491;-93
2022/07/09 14:51:26;;;;;;;7.45;2.60;;;21.50;99.90;;;;;;6037921;23;20026;-92
2022/07/09 15:04:12;;;;;;;;;;;;;;;;;;;;;
2022/07/09 15:14:34;;;;;;;10.68;2.20;;;20.20;99.90;;;;;;6125540;23;20021;-92
2022/07/09 15:24:47;;;;;;;8.57;2.00;;;20.10;99.90;;;;;;6176448;23;20036;-95
2022/07/09 15:31:15;;;;;;;7.35;1.90;;;19.70;99.90;;;;;;6185958;23;20032;-91
2022/07/09 15:34:08;;;;;;;10.30;2.30;;;20.70;99.90;;;;;;6150086;23;20036;-91
2022/07/09 15:36:34;;;;;;;6.57;2.28;;;19.70;99.90;;;;;;6160320;23;20021;-90
2022/07/09 15:42:30;;;;;;;7.35;1.80;;;19.30;99.90;;;;;;6186354;23;20017;-93
2022/07/09 15:55:36;;;;;;;;;;;19.70;99.90;;;;;;6160000;23;20056;-91
2022/07/09 15:58:17;;;;;;;7.97;1.90;;;20.30;99.90;;;;;;6158960;23;19920;-93
2022/07/09 16:04:42;;;;;;;11.45;2.45;;;19.60;99.90;;;;;;6046360;23;20022;-90
2022/07/09 16:07:23;;;;;;;9.45;2.33;;;19.60;99.90;;;;;;6045807;23;20043;-92
2022/07/09 16:10:23;;;;;;;10.02;2.30;;;20.60;99.90;;;;;;6037741;23;20054;-92
2022/07/09 16:13:16;;;;;;;7.47;2.10;;;19.90;99.90;;;;;;6012645;23;20456;-91
2022/07/09 16:18:36;;;;;;;10.98;2.17;;;20.50;99.90;;;;;;5990373;23;20031;-91
2022/07/09 16:21:05;;;;;;;8.82;2.28;;;20.50;99.90;;;;;;6036077;23;20020;-92
2022/07/09 16:24:12;;;;;;;8.50;2.00;;;19.50;99.90;;;;;;6185647;23;20009;-93
2022/07/09 16:26:52;;;;;;;7.53;2.08;;;19.50;99.90;;;;;;6022281;23;20066;-92
2022/07/09 16:29:21;;;;;;;7.03;2.05;;;19.10;99.90;;;;;;6160169;23;20028;-93
2022/07/09 16:31:48;;;;;;;7.22;1.85;;;19.30;99.90;;;;;;6157179;23;20047;31
2022/07/09 16:34:14;;;;;;;8.32;1.92;;;19.20;99.90;;;;;;6100244;23;20029;-92
2022/07/09 16:36:43;;;;;;;8.50;1.98;;;19.80;99.90;;;;;;6148810;23;20014;-91
2022/07/09 16:39:13;;;;;;;6.28;1.70;;;19.20;99.90;;;;;;6098376;23;20078;-94
2022/07/09 16:41:42;;;;;;;5.32;1.50;;;19.00;99.90;;;;;;6100736;23;20342;-95
2022/07/09 16:44:08;;;;;;;5.28;1.80;;;19.10;99.90;;;;;;6126713;23;20018;-92
2022/07/09 16:46:33;;;;;;;8.35;1.98;;;20.00;99.90;;;;;;6100400;23;20068;-93
2022/07/09 16:49:09;;;;;;;6.95;1.70;;;19.10;99.90;;;;;;6100979;23;20882;-92
2022/07/09 16:51:37;;;;;;;6.80;1.70;;;19.60;99.90;;;;;;6099526;23;20014;-89
2022/07/09 16:54:09;;;;;;;5.57;1.77;;;19.30;99.90;;;;;;6099426;23;20014;-90
2022/07/09 17:00:04;;;;;;;6.30;1.70;;;19.60;99.90;;;;;;6052718;23;20036;-92
2022/07/09 17:02:55;;;;;;;5.72;1.63;;;19.50;99.90;;;;;;6116108;23;20013;-89
2022/07/09 17:13:09;;;;;;;6.88;1.88;;;19.00;99.90;;;;;;6094459;23;20019;-93
2022/07/09 17:15:35;;;;;;;6.70;1.80;;;19.40;99.90;;;;;;6093618;23;20097;-92
2022/07/09 17:18:10;;;;;;;7.55;2.00;;;19.30;99.90;;;;;;6069462;23;20054;-91
2022/07/09 17:21:25;;;;;;;6.78;1.63;;;18.90;99.90;;;;;;6096203;23;20018;-91
2022/07/09 17:23:50;;;;;;;6.50;1.92;;;18.10;99.90;;;;;;6070026;23;20449;-89
2022/07/09 17:26:31;;;;;;;7.47;1.83;;;18.40;99.90;;;;;;6070088;23;20022;-89
2022/07/09 17:29:12;;;;;;;7.35;1.80;;;18.60;99.90;;;;;;6068900;23;20101;-88
2022/07/09 17:31:53;;;;;;;5.13;1.80;;;18.20;99.90;;;;;;6071710;23;20022;-89
2022/07/09 17:34:28;;;;;;;9.02;1.92;;;18.60;99.90;;;;;;6071732;23;20022;-88
2022/07/09 17:37:08;;;;;;;7.57;1.83;;;19.20;99.90;;;;;;6070704;23;20073;-92
2022/07/09 17:39:49;;;;;;;6.53;1.70;;;19.30;99.90;;;;;;6073236;23;20025;-89
2022/07/09 17:42:51;;;;;;;6.88;1.80;;;19.20;99.90;;;;;;6072404;23;20041;-90
2022/07/09 17:45:53;;;;;;;8.40;1.80;;;19.20;99.90;;;;;;6096131;23;20074;-93
2022/07/09 17:48:37;;;;;;;5.55;1.70;;;19.40;99.90;;;;;;6120361;23;20021;-95
2022/07/09 17:52:11;;;;;;;7.93;1.75;;;19.50;99.90;;;;;;6101124;23;20033;-96
2022/07/09 18:21:58;;;;;;;8.98;1.58;;;17.40;99.90;;;;;;6192192;23;20035;-93
2022/07/09 18:24:36;;;;;;;7.85;1.60;;;17.30;99.90;;;;;;6160778;23;20424;-90
2022/07/09 18:27:17;;;;;;;5.40;1.33;;;18.30;99.90;;;;;;6159943;23;20083;-93
2022/07/09 18:29:42;;;;;;;8.30;1.88;;;17.10;99.90;;;;;;6159970;23;20021;-91
2022/07/09 18:32:46;;;;;;;6.78;1.80;;;18.00;99.90;;;;;;6159598;23;20013;-92
2022/07/09 18:35:50;;;;;;;6.93;1.67;;;17.00;99.90;;;;;;6038153;23;20030;-91
2022/07/09 18:38:31;;;;;;;9.60;1.70;;;17.70;99.90;;;;;;6004504;23;20039;-92
2022/07/09 18:41:12;;;;;;;5.40;1.70;;;17.20;99.90;;;;;;6184767;23;20021;-89
2022/07/09 18:46:42;;;;;;;5.20;1.48;;;16.60;99.90;;;;;;6187936;23;20125;-90
2022/07/09 18:49:07;;;;;;;4.40;1.30;;;15.70;99.90;;;;;;6186278;23;20066;-90
2022/07/09 18:51:42;;;;;;;8.15;1.65;;;17.60;99.90;;;;;;6187744;23;20056;-89
2022/07/09 18:54:23;;;;;;;8.35;1.80;;;17.10;99.90;;;;;;6187013;23;20017;-91
2022/07/09 18:57:38;;;;;;;;;;;;;;;;;;;;;
2022/07/09 19:00:36;;;;;;;6.47;1.60;;;17.30;99.90;;;;;;6174364;23;20028;-93
2022/07/09 19:03:13;;;;;;;5.78;1.50;;;17.30;99.90;;;;;;6158680;23;20028;-92
2022/07/09 19:05:41;;;;;;;5.22;1.40;;;17.20;99.90;;;;;;6161818;23;20021;-92
2022/07/09 19:08:22;;;;;;;5.32;1.83;;;17.00;99.90;;;;;;6187804;23;20017;-91
2022/07/09 19:11:13;;;;;;;7.97;1.40;;;17.10;99.90;;;;;;6159727;23;20374;-91
2022/07/09 19:21:37;;;;;;;5.60;1.88;;;15.90;99.90;;;;;;6136826;23;20028;-89
2022/07/09 19:24:03;;;;;;;7.07;2.00;;;16.20;99.90;;;;;;6159482;23;20398;-90
2022/07/09 19:26:41;;;;;;;8.88;2.08;;;15.80;99.90;;;;;;6160654;23;20458;-88
2022/07/09 19:29:40;;;;;;;5.65;1.60;;;16.70;99.90;;;;;;6140236;23;20393;-88
2022/07/09 19:35:23;;;;;;;7.68;1.85;;;15.60;99.90;;;;;;6148256;23;20033;-89